Coopersville, Michigan
Current Conditions -  °F | °C
As of 4:44 AM on Thursday 23 Oct 2014 (Local Time) from KMKG Reporting Station
Haze Haze  
Wind Chill: 32°   Ceiling: 300
Heat Index: 32°   Visibility: 0.75mi
Dew Point: 29°   Wind: 3mph
Humidity: 88%   Direction: 120°ESE
Pressure: 30.26"   Gusts: NA
Location:  43.06°N, 85.93°W
Report Text: KMKG 230844Z AUTO 12003KT 3/4SM R32/P6000FT BR VV003 00/M02 A3026 RMK AO2 T00001017 $
Loading
Personal Weather Stations






























Interactive Weather Map
Tropical Storm Tracking
New forecast layout! Learn more

10-Day Weather Forecast

Advertisements
Track Severe Weather on mobile